Camrose, Canada
Current Conditions -  °F | °C
As of 8:22 PM on Sunday 21 Dec 2014 (Local Time) from CYEG Reporting Station
Broken Clouds Broken Clouds  
Wind Chill: 18°   Ceiling: 20000
Heat Index: 27°   Visibility: 12mi
Dew Point: 25°   Wind: 8mph
Humidity: 93%   Direction: 300°WNW
Pressure: 29.55"   Gusts: NA
Location:  53.02°N, 112.82°W
Report Text: CYEG 220322Z 30007KT 12SM SCT008 SCT020 BKN200 M03/M04 A2955 RMK SC3SC1CI2 SLP045
Loading
Personal Weather Stations






























Interactive Weather Map New forecast layout! Learn more

10-Day Weather Forecast

Advertisements
Track Severe Weather on mobile